createdAt,value
2018-04-23T00:00:12.228Z,0
2018-04-23T00:01:13.842Z,0
2018-04-23T00:02:15.455Z,0
2018-04-23T00:03:17.077Z,0
2018-04-23T00:04:18.692Z,0
2018-04-23T00:05:20.307Z,0
2018-04-23T00:06:21.933Z,0
2018-04-23T00:07:23.552Z,0
2018-04-23T00:08:25.168Z,0
2018-04-23T00:09:26.787Z,0
2018-04-23T00:10:28.397Z,0
2018-04-23T00:11:30.021Z,0
2018-04-23T00:12:31.634Z,0
2018-04-23T00:13:33.261Z,0
2018-04-23T00:14:34.880Z,0
2018-04-23T00:15:36.491Z,0
2018-04-23T00:16:38.111Z,0
2018-04-23T00:17:39.723Z,0
2018-04-23T00:18:41.341Z,0
2018-04-23T00:19:42.961Z,0
2018-04-23T00:20:44.582Z,0
2018-04-23T00:21:46.196Z,0
2018-04-23T00:22:47.811Z,0
2018-04-23T00:23:49.430Z,0
2018-04-23T00:24:51.050Z,0
2018-04-23T00:25:52.670Z,0
2018-04-23T00:26:54.286Z,0
2018-04-23T00:27:55.901Z,0
2018-04-23T00:28:57.535Z,0
2018-04-23T00:29:59.137Z,0
2018-04-23T00:31:00.752Z,0
2018-04-23T00:32:02.372Z,0
2018-04-23T00:33:03.989Z,0
2018-04-23T00:34:06.538Z,0
2018-04-23T00:35:08.162Z,0
2018-04-23T00:36:09.772Z,0
2018-04-23T00:37:11.386Z,0
2018-04-23T00:38:13.000Z,0
2018-04-23T00:39:14.616Z,0
2018-04-23T00:40:16.232Z,0
2018-04-23T00:41:17.850Z,0
2018-04-23T00:42:19.466Z,0
2018-04-23T00:43:21.088Z,0
2018-04-23T00:44:22.704Z,0
2018-04-23T00:45:24.320Z,0
2018-04-23T00:46:25.937Z,0
2018-04-23T00:47:27.553Z,0
2018-04-23T00:48:29.164Z,0
2018-04-23T00:49:30.788Z,0
2018-04-23T00:50:32.402Z,0
2018-04-23T00:51:34.019Z,0
2018-04-23T00:52:35.639Z,0
2018-04-23T00:53:37.250Z,0
2018-04-23T00:54:38.864Z,0
2018-04-23T00:55:40.491Z,0
2018-04-23T00:56:42.109Z,0
2018-04-23T00:57:43.728Z,0
2018-04-23T00:58:45.339Z,0
2018-04-23T00:59:46.959Z,0
2018-04-23T01:00:48.574Z,0
2018-04-23T01:01:50.194Z,0
2018-04-23T01:02:51.809Z,0
2018-04-23T01:03:53.427Z,0
2018-04-23T01:04:55.053Z,0
2018-04-23T01:05:56.664Z,0
2018-04-23T01:06:58.283Z,0
2018-04-23T01:07:59.904Z,0
2018-04-23T01:09:01.520Z,0
2018-04-23T01:10:03.135Z,0
2018-04-23T01:11:04.757Z,0
2018-04-23T01:12:06.376Z,0
2018-04-23T01:13:07.989Z,0
2018-04-23T01:14:09.603Z,0
2018-04-23T01:15:11.220Z,0
2018-04-23T01:16:12.836Z,0
2018-04-23T01:17:14.456Z,0
2018-04-23T01:18:16.077Z,0
2018-04-23T01:19:17.693Z,0
2018-04-23T01:20:19.309Z,0
2018-04-23T01:21:20.942Z,0
2018-04-23T01:22:22.561Z,0
2018-04-23T01:23:24.179Z,0
2018-04-23T01:24:25.798Z,0
2018-04-23T01:25:27.411Z,0
2018-04-23T01:26:29.032Z,0
2018-04-23T01:27:30.645Z,0
2018-04-23T01:28:32.258Z,0
2018-04-23T01:29:33.880Z,0
2018-04-23T01:30:35.495Z,0
2018-04-23T01:31:37.116Z,0
2018-04-23T01:32:38.740Z,0
2018-04-23T01:33:40.357Z,0
2018-04-23T01:34:41.971Z,0
2018-04-23T01:35:43.583Z,0
2018-04-23T01:36:45.202Z,0
2018-04-23T01:37:46.817Z,0
2018-04-23T01:38:48.441Z,0
2018-04-23T01:39:50.053Z,0
2018-04-23T01:40:51.673Z,0
2018-04-23T01:41:53.284Z,0
2018-04-23T01:42:54.899Z,0
2018-04-23T01:43:56.520Z,0
2018-04-23T01:44:58.135Z,0
2018-04-23T01:45:59.756Z,0
2018-04-23T01:47:01.377Z,0
2018-04-23T01:48:02.992Z,0
2018-04-23T01:49:04.609Z,0
2018-04-23T01:50:06.229Z,0
2018-04-23T01:51:07.845Z,0
2018-04-23T01:52:09.465Z,0
2018-04-23T01:53:11.089Z,0
2018-04-23T01:54:12.701Z,0
2018-04-23T01:55:14.326Z,0
2018-04-23T01:56:15.938Z,0
2018-04-23T01:57:17.554Z,0
2018-04-23T01:58:19.166Z,0
2018-04-23T01:59:20.787Z,0
2018-04-23T02:00:22.399Z,0
2018-04-23T02:01:24.017Z,0
2018-04-23T02:02:25.640Z,0
2018-04-23T02:03:27.252Z,0
2018-04-23T02:04:28.872Z,0
2018-04-23T02:05:30.491Z,0
2018-04-23T02:06:32.108Z,0
2018-04-23T02:07:33.727Z,0
2018-04-23T02:08:35.347Z,0
2018-04-23T02:09:36.964Z,0
2018-04-23T02:10:38.574Z,0
2018-04-23T02:11:40.194Z,0
2018-04-23T02:12:41.811Z,0
2018-04-23T02:13:43.433Z,0
2018-04-23T02:14:45.046Z,0
2018-04-23T02:15:46.660Z,0
2018-04-23T02:16:48.283Z,0
2018-04-23T02:17:49.898Z,0
2018-04-23T02:18:51.515Z,0
2018-04-23T02:19:53.135Z,0
2018-04-23T02:20:54.746Z,0
2018-04-23T02:21:56.366Z,0
2018-04-23T02:22:58.023Z,0
2018-04-23T02:23:59.605Z,0
2018-04-23T02:25:01.218Z,0
2018-04-23T02:26:02.839Z,0
2018-04-23T02:27:04.451Z,0
2018-04-23T02:28:06.076Z,0
2018-04-23T02:29:07.693Z,0
2018-04-23T02:30:09.312Z,0
2018-04-23T02:31:10.927Z,0
2018-04-23T02:32:12.540Z,0
2018-04-23T02:33:14.161Z,0
2018-04-23T02:34:15.773Z,0
2018-04-23T02:35:17.393Z,0
2018-04-23T02:36:19.013Z,0
2018-04-23T02:37:20.628Z,0
2018-04-23T02:38:22.245Z,0
2018-04-23T02:39:23.862Z,0
2018-04-23T02:40:25.476Z,0
2018-04-23T02:41:27.094Z,0
2018-04-23T02:42:28.711Z,0
2018-04-23T02:43:30.325Z,0
2018-04-23T02:44:31.942Z,0
2018-04-23T02:45:33.559Z,0
2018-04-23T02:46:35.176Z,0
2018-04-23T02:47:36.791Z,0
2018-04-23T02:48:38.413Z,0
2018-04-23T02:49:40.026Z,0
2018-04-23T02:50:41.650Z,0
2018-04-23T02:51:43.262Z,0
2018-04-23T02:52:44.884Z,0
2018-04-23T02:53:46.494Z,0
2018-04-23T02:54:48.107Z,0
2018-04-23T02:55:49.725Z,0
2018-04-23T02:56:51.338Z,0
2018-04-23T02:57:52.963Z,0
2018-04-23T02:58:54.576Z,0
2018-04-23T02:59:56.191Z,0
2018-04-23T03:00:57.802Z,0
2018-04-23T03:01:59.416Z,0
2018-04-23T03:03:01.031Z,0
2018-04-23T03:04:02.648Z,0
2018-04-23T03:05:04.270Z,0
2018-04-23T03:06:05.884Z,0
2018-04-23T03:07:07.499Z,0
2018-04-23T03:08:09.116Z,0
2018-04-23T03:09:10.732Z,0
2018-04-23T03:10:12.351Z,0
2018-04-23T03:11:13.968Z,0
2018-04-23T03:12:15.580Z,0
2018-04-23T03:13:17.197Z,0
2018-04-23T03:14:18.818Z,0
2018-04-23T03:15:20.430Z,0
2018-04-23T03:16:22.048Z,0
2018-04-23T03:17:23.666Z,0
2018-04-23T03:18:25.281Z,0
2018-04-23T03:19:26.896Z,0
2018-04-23T03:20:28.521Z,0
2018-04-23T03:21:30.138Z,0
2018-04-23T03:22:31.748Z,0
2018-04-23T03:23:33.367Z,0
2018-04-23T03:24:34.981Z,0
2018-04-23T03:25:36.598Z,0
2018-04-23T03:26:38.219Z,0
2018-04-23T03:27:39.837Z,0
2018-04-23T03:28:41.451Z,0
2018-04-23T03:29:43.070Z,0
2018-04-23T03:30:44.689Z,0
2018-04-23T03:31:46.304Z,0
2018-04-23T03:32:47.923Z,0
2018-04-23T03:33:49.542Z,0
2018-04-23T03:34:51.157Z,0
2018-04-23T03:35:52.774Z,0
2018-04-23T03:36:54.391Z,0
2018-04-23T03:37:56.005Z,0
2018-04-23T03:38:57.624Z,0
2018-04-23T03:39:59.241Z,0
2018-04-23T03:41:00.854Z,0
2018-04-23T03:42:02.475Z,0
2018-04-23T03:43:04.090Z,0
2018-04-23T03:44:05.704Z,0
2018-04-23T03:45:07.327Z,0
2018-04-23T03:46:08.934Z,0
2018-04-23T03:47:10.556Z,0
2018-04-23T03:48:12.175Z,0
2018-04-23T03:49:13.786Z,0
2018-04-23T03:50:15.402Z,0
2018-04-23T03:51:17.020Z,0
2018-04-23T03:52:18.633Z,0
2018-04-23T03:53:20.253Z,0
2018-04-23T03:54:21.866Z,0
2018-04-23T03:55:23.485Z,0
2018-04-23T03:56:25.103Z,0
2018-04-23T03:57:26.720Z,4
2018-04-23T03:58:28.333Z,4
2018-04-23T03:59:29.950Z,4
2018-04-23T04:00:31.561Z,4
2018-04-23T04:01:33.179Z,8
2018-04-23T04:02:34.791Z,8
2018-04-23T04:03:36.415Z,8
2018-04-23T04:04:38.036Z,12
2018-04-23T04:05:39.650Z,12
2018-04-23T04:06:41.267Z,12
2018-04-23T04:07:42.888Z,12
2018-04-23T04:08:44.502Z,12
2018-04-23T04:09:46.123Z,12
2018-04-23T04:10:47.739Z,12
2018-04-23T04:11:49.363Z,12
2018-04-23T04:12:50.974Z,12
2018-04-23T04:13:52.596Z,12
2018-04-23T04:14:54.207Z,20
2018-04-23T04:15:55.828Z,24
2018-04-23T04:16:57.465Z,32
2018-04-23T04:17:59.062Z,36
2018-04-23T04:19:00.681Z,40
2018-04-23T04:20:02.298Z,56
2018-04-23T04:21:03.915Z,68
2018-04-23T04:22:05.536Z,92
2018-04-23T04:23:07.156Z,112
2018-04-23T04:24:08.776Z,128
2018-04-23T04:25:10.399Z,140
2018-04-23T04:26:12.018Z,160
2018-04-23T04:27:13.634Z,180
2018-04-23T04:28:15.259Z,188
2018-04-23T04:29:16.876Z,172
2018-04-23T04:30:18.500Z,180
2018-04-23T04:31:20.122Z,220
2018-04-23T04:32:21.742Z,260
2018-04-23T04:33:23.360Z,292
2018-04-23T04:34:24.976Z,320
2018-04-23T04:35:26.599Z,352
2018-04-23T04:36:28.213Z,372
2018-04-23T04:37:29.830Z,384
2018-04-23T04:38:31.453Z,404
2018-04-23T04:39:33.079Z,432
2018-04-23T04:40:34.694Z,464
2018-04-23T04:41:36.340Z,376
2018-04-23T04:42:37.963Z,436
2018-04-23T04:43:39.595Z,456
2018-04-23T04:44:41.218Z,464
2018-04-23T04:45:42.835Z,472
2018-04-23T04:46:44.459Z,524
2018-04-23T04:47:46.082Z,612
2018-04-23T04:48:47.699Z,680
2018-04-23T04:49:49.320Z,720
2018-04-23T04:50:50.936Z,736
2018-04-23T04:51:52.554Z,764
2018-04-23T04:52:54.183Z,740
2018-04-23T04:53:55.803Z,736
2018-04-23T04:54:57.427Z,784
2018-04-23T04:55:59.049Z,828
2018-04-23T04:57:00.668Z,816
2018-04-23T04:58:02.285Z,812
2018-04-23T04:59:03.951Z,800
2018-04-23T05:00:05.522Z,800
2018-04-23T05:01:07.146Z,748
2018-04-23T05:02:08.770Z,816
2018-04-23T05:03:10.387Z,828
2018-04-23T05:04:12.011Z,840
2018-04-23T05:05:13.629Z,920
2018-04-23T05:06:15.255Z,944
2018-04-23T05:07:16.870Z,948
2018-04-23T05:08:18.489Z,980
2018-04-23T05:09:20.113Z,984
2018-04-23T05:10:21.736Z,1008
2018-04-23T05:11:23.354Z,988
2018-04-23T05:12:24.973Z,984
2018-04-23T05:13:26.616Z,1060
2018-04-23T05:14:28.239Z,1192
2018-04-23T05:15:29.859Z,1252
2018-04-23T05:16:31.481Z,1292
2018-04-23T05:17:33.103Z,1440
2018-04-23T05:18:34.721Z,1616
2018-04-23T05:19:36.342Z,1772
2018-04-23T05:20:37.971Z,1884
2018-04-23T05:21:39.588Z,1828
2018-04-23T05:22:41.212Z,1640
2018-04-23T05:23:42.839Z,1560
2018-04-23T05:24:44.452Z,1492
2018-04-23T05:25:46.076Z,1612
2018-04-23T05:26:48.358Z,1912
2018-04-23T05:27:49.979Z,2164
2018-04-23T05:28:51.603Z,2228
2018-04-23T05:29:53.229Z,2072
2018-04-23T05:30:54.850Z,2016
2018-04-23T05:31:56.470Z,2068
2018-04-23T05:32:58.092Z,2128
2018-04-23T05:33:59.711Z,2024
2018-04-23T05:35:01.332Z,1676
2018-04-23T05:36:02.954Z,1576
2018-04-23T05:37:04.577Z,1828
2018-04-23T05:38:06.200Z,2240
2018-04-23T05:39:07.821Z,2628
2018-04-23T05:40:09.442Z,2492
2018-04-23T05:41:11.065Z,2636
2018-04-23T05:42:12.683Z,2728
2018-04-23T05:43:14.338Z,2896
2018-04-23T05:44:15.929Z,2588
2018-04-23T05:45:17.552Z,2124
2018-04-23T05:46:19.174Z,1608
2018-04-23T05:47:20.805Z,1592
2018-04-23T05:48:22.419Z,2112
2018-04-23T05:49:24.040Z,2124
2018-04-23T05:50:25.668Z,1980
2018-04-23T05:51:27.290Z,1948
2018-04-23T05:52:28.913Z,2140
2018-04-23T05:53:30.530Z,2348
2018-04-23T05:54:32.153Z,2972
2018-04-23T05:55:33.772Z,3480
2018-04-23T05:56:35.397Z,3692
2018-04-23T05:57:37.021Z,3920
2018-04-23T05:58:38.643Z,4120
2018-04-23T05:59:40.275Z,4224
2018-04-23T06:00:41.886Z,4288
2018-04-23T06:01:43.506Z,4444
2018-04-23T06:02:45.134Z,4428
2018-04-23T06:03:46.754Z,4500
2018-04-23T06:04:48.380Z,4620
2018-04-23T06:05:49.999Z,4712
2018-04-23T06:06:51.622Z,4788
2018-04-23T06:07:53.240Z,4888
2018-04-23T06:08:54.905Z,4988
2018-04-23T06:09:56.483Z,5104
2018-04-23T06:10:58.108Z,5268
2018-04-23T06:11:59.733Z,5304
2018-04-23T06:13:01.354Z,5488
2018-04-23T06:14:02.986Z,5900
2018-04-23T06:15:04.603Z,6048
2018-04-23T06:16:06.224Z,6200
2018-04-23T06:17:07.850Z,5984
2018-04-23T06:18:09.472Z,6464
2018-04-23T06:19:11.101Z,6576
2018-04-23T06:20:12.726Z,6480
2018-04-23T06:21:14.348Z,7352
2018-04-23T06:22:15.967Z,7144
2018-04-23T06:23:17.587Z,7236
2018-04-23T06:24:19.210Z,7372
2018-04-23T06:25:20.833Z,7552
2018-04-23T06:26:22.463Z,7100
2018-04-23T06:27:24.083Z,6900
2018-04-23T06:28:25.705Z,6404
2018-04-23T06:29:27.334Z,6816
2018-04-23T06:30:28.956Z,6428
2018-04-23T06:31:30.576Z,5756
2018-04-23T06:32:32.205Z,6648
2018-04-23T06:33:33.828Z,6756
2018-04-23T06:34:35.451Z,6672
2018-04-23T06:35:37.079Z,6692
2018-04-23T06:36:38.703Z,6168
2018-04-23T06:37:40.332Z,5844
2018-04-23T06:38:41.956Z,5592
2018-04-23T06:39:43.574Z,5368
2018-04-23T06:40:45.198Z,5460
2018-04-23T06:41:46.821Z,5356
2018-04-23T06:42:48.449Z,5148
2018-04-23T06:43:50.072Z,5260
2018-04-23T06:44:51.691Z,5152
2018-04-23T06:45:53.316Z,5100
2018-04-23T06:46:54.945Z,5076
2018-04-23T06:47:56.564Z,5112
2018-04-23T06:48:58.190Z,5060
2018-04-23T06:49:59.813Z,5324
2018-04-23T06:51:01.428Z,5556
2018-04-23T06:52:03.058Z,5608
2018-04-23T06:53:04.682Z,6400
2018-04-23T06:54:06.309Z,7528
2018-04-23T06:55:07.926Z,8752
2018-04-23T06:56:09.554Z,8360
2018-04-23T06:57:11.182Z,8264
2018-04-23T06:58:12.802Z,8180
2018-04-23T06:59:14.425Z,8076
2018-04-23T07:00:16.047Z,7340
2018-04-23T07:01:17.670Z,6440
2018-04-23T07:02:19.290Z,5860
2018-04-23T07:03:20.919Z,5636
2018-04-23T07:04:22.543Z,5312
2018-04-23T07:05:24.160Z,6064
2018-04-23T07:06:25.786Z,7192
2018-04-23T07:07:27.410Z,7456
2018-04-23T07:08:29.031Z,8020
2018-04-23T07:09:30.657Z,7532
2018-04-23T07:10:32.330Z,6260
2018-04-23T07:11:33.900Z,5484
2018-04-23T07:12:35.524Z,5204
2018-04-23T07:13:37.181Z,4768
2018-04-23T07:14:38.768Z,4316
2018-04-23T07:15:40.397Z,3788
2018-04-23T07:16:42.013Z,3828
2018-04-23T07:17:43.648Z,4304
2018-04-23T07:18:45.268Z,4156
2018-04-23T07:19:46.892Z,4128
2018-04-23T07:20:48.503Z,4332
2018-04-23T07:21:50.124Z,4216
2018-04-23T07:22:51.748Z,4260
2018-04-23T07:23:53.375Z,4488
2018-04-23T07:24:54.995Z,4900
2018-04-23T07:25:56.623Z,4784
2018-04-23T07:26:58.242Z,4660
2018-04-23T07:27:59.861Z,5212
2018-04-23T07:29:01.490Z,5828
2018-04-23T07:30:03.112Z,6000
2018-04-23T07:31:04.740Z,5672
2018-04-23T07:32:06.361Z,5652
2018-04-23T07:33:07.979Z,5208
2018-04-23T07:34:10.346Z,4524
2018-04-23T07:35:11.973Z,4740
2018-04-23T07:36:13.591Z,4920
2018-04-23T07:37:15.218Z,4976
2018-04-23T07:38:18.455Z,5328
2018-04-23T07:39:20.079Z,5660
2018-04-23T07:40:21.701Z,5576
2018-04-23T07:41:23.323Z,5836
2018-04-23T07:42:24.944Z,6108
2018-04-23T07:43:26.572Z,6236
2018-04-23T07:44:28.188Z,6312
2018-04-23T07:45:29.822Z,7000
2018-04-23T07:46:31.435Z,7140
2018-04-23T07:47:33.060Z,7288
2018-04-23T07:48:34.685Z,9076
2018-04-23T07:49:36.302Z,8260
2018-04-23T07:50:37.926Z,8948
2018-04-23T07:51:39.554Z,9532
2018-04-23T07:52:41.177Z,8476
2018-04-23T07:53:42.805Z,10076
2018-04-23T07:54:44.428Z,12620
2018-04-23T07:55:46.060Z,10084
2018-04-23T07:56:47.680Z,11856
2018-04-23T07:57:49.309Z,8780
2018-04-23T07:58:50.933Z,12696
2018-04-23T07:59:52.563Z,10244
2018-04-23T08:00:54.187Z,10600
2018-04-23T08:01:55.821Z,10060
2018-04-23T08:02:57.442Z,9712
2018-04-23T08:03:59.069Z,9944
2018-04-23T08:05:00.692Z,9720
2018-04-23T08:06:02.317Z,10392
2018-04-23T08:07:03.944Z,10532
2018-04-23T08:08:05.576Z,10164
2018-04-23T08:09:07.206Z,10956
2018-04-23T08:10:08.832Z,15672
2018-04-23T08:11:10.462Z,18624
2018-04-23T08:12:12.108Z,14308
2018-04-23T08:13:13.716Z,14972
2018-04-23T08:14:15.344Z,12552
2018-04-23T08:15:16.977Z,12228
2018-04-23T08:16:18.604Z,12096
2018-04-23T08:17:20.229Z,12456
2018-04-23T08:18:21.859Z,16800
2018-04-23T08:19:23.483Z,14852
2018-04-23T08:20:25.114Z,13128
2018-04-23T08:21:26.744Z,11336
2018-04-23T08:22:28.372Z,11024
2018-04-23T08:23:30.003Z,14412
2018-04-23T08:24:31.631Z,13120
2018-04-23T08:25:33.256Z,11644
2018-04-23T08:26:34.885Z,11572
2018-04-23T08:27:36.516Z,14980
2018-04-23T08:28:38.143Z,11636
2018-04-23T08:29:39.783Z,10936
2018-04-23T08:30:41.404Z,14940
2018-04-23T08:31:43.044Z,14456
2018-04-23T08:32:44.658Z,8608
2018-04-23T08:33:46.286Z,10748
2018-04-23T08:34:47.922Z,10152
2018-04-23T08:35:49.550Z,12956
2018-04-23T08:36:51.185Z,13204
2018-04-23T08:37:52.821Z,12560
2018-04-23T08:38:54.447Z,12528
2018-04-23T08:39:56.081Z,12976
2018-04-23T08:40:57.708Z,12472
2018-04-23T08:41:59.343Z,13300
2018-04-23T08:43:00.974Z,14516
2018-04-23T08:44:02.617Z,12684
2018-04-23T08:45:04.248Z,12800
2018-04-23T08:46:05.885Z,12608
2018-04-23T08:47:07.521Z,13016
2018-04-23T08:48:09.149Z,13596
2018-04-23T08:49:10.785Z,9472
2018-04-23T08:50:12.418Z,13836
2018-04-23T08:51:14.058Z,14136
2018-04-23T08:52:15.703Z,14292
2018-04-23T08:53:17.329Z,14200
2018-04-23T08:54:18.963Z,15412
2018-04-23T08:55:20.599Z,15952
2018-04-23T08:56:22.234Z,17056
2018-04-23T08:57:23.876Z,17184
2018-04-23T08:58:25.516Z,17120
2018-04-23T08:59:27.155Z,17632
2018-04-23T09:00:28.787Z,11092
2018-04-23T09:01:30.442Z,14072
2018-04-23T09:02:32.062Z,15808
2018-04-23T09:03:33.698Z,15632
2018-04-23T09:04:35.334Z,15812
2018-04-23T09:05:36.978Z,16228
2018-04-23T09:06:38.611Z,17344
2018-04-23T09:07:40.252Z,7924
2018-04-23T09:08:41.890Z,10856
2018-04-23T09:09:43.523Z,21056
2018-04-23T09:10:45.162Z,19808
2018-04-23T09:11:46.839Z,19200
2018-04-23T09:12:48.433Z,12272
2018-04-23T09:13:50.072Z,21024
2018-04-23T09:14:51.714Z,18464
2018-04-23T09:15:53.344Z,20768
2018-04-23T09:16:54.986Z,15408
2018-04-23T09:17:56.619Z,19072
2018-04-23T09:18:58.255Z,18560
2018-04-23T09:19:59.897Z,18496
2018-04-23T09:21:01.538Z,18976
2018-04-23T09:22:03.170Z,19104
2018-04-23T09:23:04.805Z,19584
2018-04-23T09:24:06.440Z,19840
2018-04-23T09:25:08.080Z,18272
2018-04-23T09:26:09.714Z,13040
2018-04-23T09:27:11.356Z,21056
2018-04-23T09:28:12.995Z,22624
2018-04-23T09:29:14.624Z,25664
2018-04-23T09:30:16.263Z,19456
2018-04-23T09:31:17.900Z,13276
2018-04-23T09:32:19.535Z,28448
2018-04-23T09:33:21.180Z,24768
2018-04-23T09:34:22.818Z,13660
2018-04-23T09:35:24.454Z,16424
2018-04-23T09:36:26.093Z,30592
2018-04-23T09:37:27.732Z,20096
2018-04-23T09:38:29.372Z,11840
2018-04-23T09:39:31.011Z,16152
2018-04-23T09:40:32.645Z,35360
2018-04-23T09:41:34.276Z,12136
2018-04-23T09:42:35.914Z,15416
2018-04-23T09:43:37.551Z,7792
2018-04-23T09:44:39.199Z,10412
2018-04-23T09:45:40.820Z,37920
2018-04-23T09:46:42.459Z,35008
2018-04-23T09:47:44.098Z,7468
2018-04-23T09:48:45.733Z,9400
2018-04-23T09:49:47.369Z,45760
2018-04-23T09:50:48.999Z,7272
2018-04-23T09:51:50.630Z,39520
2018-04-23T09:52:52.271Z,51392
2018-04-23T09:53:53.910Z,54720
2018-04-23T09:54:55.546Z,53280
2018-04-23T09:55:57.184Z,58592
2018-04-23T09:56:58.818Z,59968
2018-04-23T09:58:00.458Z,65952
2018-04-23T09:59:02.093Z,64256
2018-04-23T10:00:03.735Z,50656
2018-04-23T10:01:05.370Z,59584
2018-04-23T10:02:07.009Z,58368
2018-04-23T10:03:08.645Z,65344
2018-04-23T10:04:10.285Z,69216
2018-04-23T10:05:11.920Z,65120
2018-04-23T10:06:13.556Z,55840
2018-04-23T10:07:15.195Z,11572
2018-04-23T10:08:16.831Z,12264
2018-04-23T10:09:18.473Z,14072
2018-04-23T10:10:20.116Z,42816
2018-04-23T10:11:21.758Z,9216
2018-04-23T10:12:23.391Z,8764
2018-04-23T10:13:25.026Z,9284
2018-04-23T10:14:27.356Z,10760
2018-04-23T10:15:28.999Z,12140
2018-04-23T10:16:30.628Z,7628
2018-04-23T10:17:32.265Z,8528
2018-04-23T10:18:33.905Z,11056
2018-04-23T10:19:35.535Z,15836
2018-04-23T10:20:37.167Z,51840
2018-04-23T10:21:38.805Z,17984
2018-04-23T10:22:40.433Z,13292
2018-04-23T10:23:42.070Z,9968
2018-04-23T10:24:43.705Z,8956
2018-04-23T10:25:45.341Z,9832
2018-04-23T10:26:46.972Z,14716
2018-04-23T10:27:48.601Z,11216
2018-04-23T10:28:50.231Z,11332
2018-04-23T10:29:51.861Z,9592
2018-04-23T10:30:53.493Z,9252
2018-04-23T10:31:55.122Z,9948
2018-04-23T10:32:56.764Z,31584
2018-04-23T10:33:58.386Z,33248
2018-04-23T10:35:00.018Z,24032
2018-04-23T10:36:01.647Z,13088
2018-04-23T10:37:03.281Z,31104
2018-04-23T10:38:04.918Z,19200
2018-04-23T10:39:06.548Z,17376
2018-04-23T10:40:08.185Z,30784
2018-04-23T10:41:09.814Z,29696
2018-04-23T10:42:11.454Z,30688
2018-04-23T10:43:13.087Z,29984
2018-04-23T10:44:14.717Z,28288
2018-04-23T10:45:16.360Z,27616
2018-04-23T10:46:17.999Z,27200
2018-04-23T10:47:19.632Z,28160
2018-04-23T10:48:21.265Z,28512
2018-04-23T10:49:22.900Z,28640
2018-04-23T10:50:24.539Z,27136
2018-04-23T10:51:26.186Z,28640
2018-04-23T10:52:27.814Z,30112
2018-04-23T10:53:29.452Z,30656
2018-04-23T10:54:31.094Z,28768
2018-04-23T10:55:32.724Z,16996
2018-04-23T10:56:34.364Z,25760
2018-04-23T10:57:36.004Z,30144
2018-04-23T10:58:37.638Z,31872
2018-04-23T10:59:39.279Z,34144
2018-04-23T11:00:40.916Z,23648
2018-04-23T11:01:42.559Z,25248
2018-04-23T11:02:44.191Z,35296
2018-04-23T11:03:45.828Z,22272
2018-04-23T11:04:47.464Z,18208
2018-04-23T11:05:49.103Z,12784
2018-04-23T11:06:50.744Z,10992
2018-04-23T11:07:52.382Z,15388
2018-04-23T11:08:54.016Z,17104
2018-04-23T11:09:55.650Z,71424
2018-04-23T11:10:57.288Z,17804
2018-04-23T11:11:58.920Z,13392
2018-04-23T11:13:00.560Z,12408
2018-04-23T11:14:02.197Z,15772
2018-04-23T11:15:03.829Z,13304
2018-04-23T11:16:05.472Z,11780
2018-04-23T11:17:07.101Z,12748
2018-04-23T11:18:08.738Z,15696
2018-04-23T11:19:10.367Z,37440
2018-04-23T11:20:11.996Z,34464
2018-04-23T11:21:13.628Z,32192
2018-04-23T11:22:15.265Z,13796
2018-04-23T11:23:16.905Z,18592
2018-04-23T11:24:18.539Z,13640
2018-04-23T11:25:20.170Z,21600
2018-04-23T11:26:21.807Z,31616
2018-04-23T11:27:23.437Z,33664
2018-04-23T11:28:25.077Z,33664
2018-04-23T11:29:26.711Z,31040
2018-04-23T11:30:28.347Z,28192
2018-04-23T11:31:29.979Z,27328
2018-04-23T11:32:31.616Z,26688
2018-04-23T11:33:33.264Z,26464
2018-04-23T11:34:34.887Z,26144
2018-04-23T11:35:36.529Z,24736
2018-04-23T11:36:38.164Z,24928
2018-04-23T11:37:39.800Z,26336
2018-04-23T11:38:41.436Z,28384
2018-04-23T11:39:43.072Z,23744
2018-04-23T11:40:44.704Z,33824
2018-04-23T11:41:46.346Z,34656
2018-04-23T11:42:47.986Z,34720
2018-04-23T11:43:49.622Z,33696
2018-04-23T11:44:51.263Z,33984
2018-04-23T11:45:52.901Z,34944
2018-04-23T11:46:54.539Z,35360
2018-04-23T11:47:56.177Z,23904
2018-04-23T11:48:57.814Z,26976
2018-04-23T11:49:59.457Z,43200
2018-04-23T11:51:01.091Z,29024
2018-04-23T11:52:02.737Z,14752
2018-04-23T11:53:04.371Z,17760
2018-04-23T11:54:06.002Z,98016
2018-04-23T11:55:07.642Z,109024
2018-04-23T11:56:09.285Z,103392
2018-04-23T11:57:10.920Z,102336
2018-04-23T11:58:12.565Z,106336
2018-04-23T11:59:14.223Z,106656
2018-04-23T12:00:15.839Z,106048
2018-04-23T12:01:17.478Z,101472
2018-04-23T12:02:19.112Z,102912
2018-04-23T12:03:20.749Z,99072
2018-04-23T12:04:22.392Z,94944
2018-04-23T12:05:24.034Z,95456
2018-04-23T12:06:25.673Z,97184
2018-04-23T12:07:27.304Z,96544
2018-04-23T12:08:28.945Z,91968
2018-04-23T12:09:30.582Z,99264
2018-04-23T12:10:32.224Z,92544
2018-04-23T12:11:33.866Z,95328
2018-04-23T12:12:35.502Z,18432
2018-04-23T12:13:37.140Z,12824
2018-04-23T12:14:38.781Z,14100
2018-04-23T12:15:40.415Z,100768
2018-04-23T12:16:42.055Z,31872
2018-04-23T12:17:43.696Z,97408
2018-04-23T12:18:45.329Z,12360
2018-04-23T12:19:46.971Z,20544
2018-04-23T12:20:48.607Z,19104
2018-04-23T12:21:50.245Z,19616
2018-04-23T12:22:51.876Z,24480
2018-04-23T12:23:53.512Z,16296
2018-04-23T12:24:55.149Z,12820
2018-04-23T12:25:56.786Z,14372
2018-04-23T12:26:58.422Z,78272
2018-04-23T12:28:00.060Z,20672
2018-04-23T12:29:01.690Z,25984
2018-04-23T12:30:03.325Z,97152
2018-04-23T12:31:04.959Z,36640
2018-04-23T12:32:06.593Z,95072
2018-04-23T12:33:08.229Z,21728
2018-04-23T12:34:09.862Z,96576
2018-04-23T12:35:11.498Z,21568
2018-04-23T12:36:13.130Z,100192
2018-04-23T12:37:14.766Z,39040
2018-04-23T12:38:16.395Z,77792
2018-04-23T12:39:18.040Z,27136
2018-04-23T12:40:19.665Z,91296
2018-04-23T12:41:21.306Z,11380
2018-04-23T12:42:22.938Z,10900
2018-04-23T12:43:24.568Z,55552
2018-04-23T12:44:26.203Z,92992
2018-04-23T12:45:27.834Z,91232
2018-04-23T12:46:29.465Z,45824
2018-04-23T12:47:31.106Z,81792
2018-04-23T12:48:32.731Z,82464
2018-04-23T12:49:34.371Z,83904
2018-04-23T12:50:36.002Z,81408
2018-04-23T12:51:37.640Z,85120
2018-04-23T12:52:39.270Z,82464
2018-04-23T12:53:40.905Z,83008
2018-04-23T12:54:42.547Z,83744
2018-04-23T12:55:44.189Z,85984
2018-04-23T12:56:45.824Z,12476
2018-04-23T12:57:47.459Z,42848
2018-04-23T12:58:49.089Z,86624
2018-04-23T12:59:50.724Z,85216
2018-04-23T13:00:52.360Z,86880
2018-04-23T13:01:53.996Z,86912
2018-04-23T13:02:55.637Z,69024
2018-04-23T13:03:57.270Z,58752
2018-04-23T13:04:58.904Z,11156
2018-04-23T13:06:00.545Z,19744
2018-04-23T13:07:02.173Z,90624
2018-04-23T13:08:03.812Z,83424
2018-04-23T13:09:05.450Z,79776
2018-04-23T13:10:07.083Z,78176
2018-04-23T13:11:08.724Z,79776
2018-04-23T13:12:10.361Z,83520
2018-04-23T13:13:11.989Z,82112
2018-04-23T13:14:13.630Z,81024
2018-04-23T13:15:15.265Z,82208
2018-04-23T13:16:16.903Z,84160
2018-04-23T13:17:18.542Z,84320
2018-04-23T13:18:20.209Z,83040
2018-04-23T13:19:21.812Z,81600
2018-04-23T13:20:23.447Z,82144
2018-04-23T13:21:25.079Z,82240
2018-04-23T13:22:26.725Z,74944
2018-04-23T13:23:28.360Z,68640
2018-04-23T13:24:29.997Z,82400
2018-04-23T13:25:31.637Z,80352
2018-04-23T13:26:33.270Z,84736
2018-04-23T13:27:34.912Z,81344
2018-04-23T13:28:36.541Z,79456
2018-04-23T13:29:38.178Z,79680
2018-04-23T13:30:39.818Z,81344
2018-04-23T13:31:41.450Z,82752
2018-04-23T13:32:43.093Z,19968
2018-04-23T13:33:44.730Z,25472
2018-04-23T13:34:46.365Z,22976
2018-04-23T13:35:47.998Z,72640
2018-04-23T13:36:49.638Z,81504
2018-04-23T13:37:51.275Z,69312
2018-04-23T13:38:52.909Z,75392
2018-04-23T13:39:54.551Z,17268
2018-04-23T13:40:56.180Z,39040
2018-04-23T13:41:57.814Z,10120
2018-04-23T13:42:59.451Z,13896
2018-04-23T13:44:01.136Z,73696
2018-04-23T13:45:02.726Z,74400
2018-04-23T13:46:04.357Z,76800
2018-04-23T13:47:05.989Z,68064
2018-04-23T13:48:07.619Z,9868
2018-04-23T13:49:09.252Z,9976
2018-04-23T13:50:10.957Z,13592
2018-04-23T13:51:12.519Z,34720
2018-04-23T13:52:14.153Z,73568
2018-04-23T13:53:15.792Z,72224
2018-04-23T13:54:17.428Z,71488
2018-04-23T13:55:19.056Z,71776